Private Wetterstation Sandau
Wetterdaten: Freitag, 08.03.2013
Datum Zeit Temp. A. Feuchte A. Luftdruck Regen Wind Richtung Richtung Taupunkt Windchill
08.03.2013 00:01 5,4 C 73 % 1007,9 hPa 0,0 l/m 5,4 km/h (1 Bft) O-SO 112 1,0 C 4,4 C
08.03.2013 00:06 5,4 C 73 % 1007,8 hPa 0,0 l/m 10,1 km/h (2 Bft) O 90 1,0 C 3,1 C
08.03.2013 00:11 5,3 C 73 % 1008,0 hPa 0,0 l/m 4,0 km/h (1 Bft) O-SO 112 0,9 C 5,3 C
08.03.2013 00:16 5,3 C 73 % 1008,0 hPa 0,0 l/m 6,8 km/h (2 Bft) O-SO 112 0,9 C 3,8 C
08.03.2013 00:21 5,3 C 73 % 1007,8 hPa 0,0 l/m 15,1 km/h (3 Bft) O-SO 112 0,9 C 2,1 C
08.03.2013 00:26 5,1 C 73 % 1008,0 hPa 0,0 l/m 10,1 km/h (2 Bft) O 90 0,7 C 2,8 C
08.03.2013 00:31 5,1 C 73 % 1008,0 hPa 0,0 l/m 5,4 km/h (1 Bft) SO 135 0,7 C 4,0 C
08.03.2013 00:36 4,9 C 74 % 1008,1 hPa 0,0 l/m 10,8 km/h (2 Bft) SO 135 0,7 C 2,4 C
08.03.2013 00:41 4,9 C 74 % 1008,1 hPa 0,0 l/m 15,5 km/h (3 Bft) SO 135 0,7 C 1,5 C
08.03.2013 00:46 4,8 C 74 % 1008,1 hPa 0,0 l/m 24,8 km/h (4 Bft) O 90 0,6 C 0,3 C
08.03.2013 00:51 4,7 C 74 % 1008,1 hPa 0,0 l/m 20,5 km/h (4 Bft) O 90 0,5 C 0,6 C
08.03.2013 00:56 4,7 C 73 % 1008,0 hPa 0,0 l/m 24,1 km/h (4 Bft) S 180 0,3 C 0,2 C
08.03.2013 01:01 4,6 C 73 % 1008,2 hPa 0,0 l/m 25,9 km/h (4 Bft) O-SO 112 0,2 C -0,1 C
08.03.2013 01:06 4,6 C 74 % 1008,0 hPa 0,0 l/m 14,4 km/h (3 Bft) SO 135 0,4 C 1,4 C
08.03.2013 01:11 4,5 C 73 % 1008,1 hPa 0,0 l/m 11,9 km/h (2 Bft) SO 135 0,1 C 1,7 C
08.03.2013 01:16 4,5 C 72 % 1008,1 hPa 0,0 l/m 23,8 km/h (4 Bft) O-SO 112 -0,1 C -0,0 C
08.03.2013 01:21 4,4 C 72 % 1008,1 hPa 0,0 l/m 10,4 km/h (2 Bft) O 90 -0,2 C 1,9 C
08.03.2013 01:26 4,4 C 72 % 1008,2 hPa 0,0 l/m 13,0 km/h (3 Bft) SO 135 -0,2 C 1,3 C
08.03.2013 01:31 4,3 C 71 % 1008,3 hPa 0,0 l/m 13,0 km/h (3 Bft) O 90 -0,5 C 1,2 C
08.03.2013 01:36 4,3 C 70 % 1008,2 hPa 0,0 l/m 15,8 km/h (3 Bft) O 90 -0,7 C 0,8 C
08.03.2013 01:41 4,2 C 69 % 1008,4 hPa 0,0 l/m 16,9 km/h (3 Bft) SO 135 -1,0 C 0,5 C
08.03.2013 01:46 4,2 C 69 % 1008,2 hPa 0,0 l/m 19,1 km/h (3 Bft) S-SO 157 -1,0 C 0,2 C
08.03.2013 01:51 4,1 C 69 % 1008,5 hPa 0,0 l/m 21,6 km/h (4 Bft) O-SO 112 -1,1 C -0,3 C
08.03.2013 01:56 4,1 C 69 % 1008,4 hPa 0,0 l/m 13,7 km/h (3 Bft) S-SO 157 -1,1 C 0,9 C
08.03.2013 02:01 4,1 C 69 % 1008,6 hPa 0,0 l/m 16,9 km/h (3 Bft) O-SO 112 -1,1 C 0,3 C
08.03.2013 02:06 3,9 C 69 % 1008,4 hPa 0,0 l/m 5,8 km/h (2 Bft) O 90 -1,3 C 2,5 C
08.03.2013 02:11 3,9 C 69 % 1008,4 hPa 0,0 l/m 22,0 km/h (4 Bft) O-NO 67 -1,3 C -0,6 C
08.03.2013 02:16 3,8 C 69 % 1008,6 hPa 0,0 l/m 22,7 km/h (4 Bft) SO 135 -1,4 C -0,8 C
08.03.2013 02:21 3,6 C 70 % 1008,8 hPa 0,0 l/m 22,7 km/h (4 Bft) O-NO 67 -1,3 C -1,0 C
08.03.2013 02:26 3,4 C 71 % 1008,7 hPa 0,0 l/m 10,4 km/h (2 Bft) O-SO 112 -1,3 C 0,7 C
08.03.2013 02:31 3,3 C 73 % 1008,8 hPa 0,0 l/m 8,6 km/h (2 Bft) NO 45 -1,1 C 1,0 C
08.03.2013 02:36 3,0 C 74 % 1008,8 hPa 0,0 l/m 16,9 km/h (3 Bft) SO 135 -1,2 C -1,0 C
08.03.2013 02:41 2,7 C 75 % 1008,5 hPa 0,0 l/m 9,0 km/h (2 Bft) SO 135 -1,3 C 0,2 C
08.03.2013 02:46 2,5 C 77 % 1008,5 hPa 0,0 l/m 19,4 km/h (3 Bft) O-NO 67 -1,1 C -2,0 C
08.03.2013 02:51 2,3 C 78 % 1008,6 hPa 0,0 l/m 21,2 km/h (4 Bft) O 90 -1,1 C -2,5 C
08.03.2013 02:56 2,2 C 79 % 1008,7 hPa 0,0 l/m 9,0 km/h (2 Bft) O-SO 112 -1,1 C -0,4 C
08.03.2013 03:01 2,1 C 79 % 1008,7 hPa 0,0 l/m 18,7 km/h (3 Bft) SO 135 -1,2 C -2,4 C
08.03.2013 03:06 1,9 C 80 % 1008,6 hPa 0,0 l/m 19,4 km/h (3 Bft) SO 135 -1,2 C -2,8 C
08.03.2013 03:11 1,9 C 80 % 1008,6 hPa 0,0 l/m 18,7 km/h (3 Bft) O-SO 112 -1,2 C -2,7 C
08.03.2013 03:16 1,8 C 80 % 1008,6 hPa 0,0 l/m 14,8 km/h (3 Bft) O-SO 112 -1,3 C -2,2 C
08.03.2013 03:21 1,8 C 81 % 1008,6 hPa 0,0 l/m 14,4 km/h (3 Bft) O 90 -1,1 C -2,1 C
08.03.2013 03:26 1,6 C 82 % 1008,7 hPa 0,0 l/m 13,0 km/h (3 Bft) O 90 -1,1 C -2,1 C
08.03.2013 03:31 1,6 C 82 % 1008,4 hPa 0,0 l/m 11,9 km/h (2 Bft) O 90 -1,1 C -1,8 C
08.03.2013 03:36 1,5 C 83 % 1008,4 hPa 0,0 l/m 8,6 km/h (2 Bft) O-NO 67 -1,1 C -1,2 C
08.03.2013 03:41 1,4 C 83 % 1008,5 hPa 0,0 l/m 10,4 km/h (2 Bft) O-NO 67 -1,2 C -1,7 C
08.03.2013 03:46 1,3 C 83 % 1008,6 hPa 0,0 l/m 8,6 km/h (2 Bft) O 90 -1,3 C -1,4 C
08.03.2013 03:51 1,3 C 84 % 1008,6 hPa 0,0 l/m 20,9 km/h (4 Bft) O-SO 112 -1,1 C -3,7 C
08.03.2013 03:56 1,3 C 84 % 1008,5 hPa 0,0 l/m 10,8 km/h (2 Bft) O-NO 67 -1,1 C -2,0 C
08.03.2013 04:01 1,3 C 84 % 1008,4 hPa 0,0 l/m 9,7 km/h (2 Bft) O 90 -1,1 C -1,7 C
08.03.2013 04:06 1,2 C 85 % 1008,4 hPa 0,0 l/m 25,2 km/h (4 Bft) O 90 -1,0 C -4,4 C
08.03.2013 04:11 1,1 C 85 % 1008,5 hPa 0,0 l/m 11,9 km/h (2 Bft) O-NO 67 -1,1 C -2,4 C
08.03.2013 04:16 1,1 C 85 % 1008,6 hPa 0,0 l/m 9,0 km/h (2 Bft) O-NO 67 -1,1 C -1,7 C
08.03.2013 04:21 1,0 C 85 % 1008,6 hPa 0,0 l/m 18,7 km/h (3 Bft) O-NO 67 -1,2 C -3,8 C
08.03.2013 04:26 0,9 C 86 % 1008,5 hPa 0,0 l/m 16,6 km/h (3 Bft) SO 135 -1,2 C -3,6 C
08.03.2013 04:31 0,9 C 86 % 1008,4 hPa 0,0 l/m 17,3 km/h (3 Bft) NO 45 -1,2 C -3,7 C
08.03.2013 04:36 0,9 C 86 % 1008,3 hPa 0,0 l/m 13,0 km/h (3 Bft) O-NO 67 -1,2 C -2,9 C
08.03.2013 04:41 0,8 C 86 % 1008,4 hPa 0,0 l/m 22,3 km/h (4 Bft) O-NO 67 -1,3 C -4,5 C
08.03.2013 04:46 0,8 C 87 % 1008,5 hPa 0,0 l/m 16,6 km/h (3 Bft) O-SO 112 -1,1 C -3,7 C
08.03.2013 04:51 0,8 C 87 % 1008,6 hPa 0,0 l/m 15,8 km/h (3 Bft) O-SO 112 -1,1 C -3,6 C
08.03.2013 04:56 0,8 C 87 % 1008,7 hPa 0,0 l/m 10,4 km/h (2 Bft) O 90 -1,1 C -2,5 C
08.03.2013 05:01 0,8 C 87 % 1008,7 hPa 0,0 l/m 4,7 km/h (1 Bft) O 90 -1,1 C -0,5 C
08.03.2013 05:06 0,8 C 87 % 1008,6 hPa 0,0 l/m 13,7 km/h (3 Bft) O-SO 112 -1,1 C -3,2 C
08.03.2013 05:11 0,8 C 87 % 1008,7 hPa 0,0 l/m 8,6 km/h (2 Bft) O-SO 112 -1,1 C -2,0 C
08.03.2013 05:16 0,8 C 87 % 1008,7 hPa 0,0 l/m 9,0 km/h (2 Bft) SO 135 -1,1 C -2,1 C
08.03.2013 05:21 0,8 C 87 % 1008,8 hPa 0,0 l/m 5,8 km/h (2 Bft) O-NO 67 -1,1 C -1,0 C
08.03.2013 05:26 0,8 C 87 % 1008,7 hPa 0,0 l/m 9,0 km/h (2 Bft) O-SO 112 -1,1 C -2,1 C
08.03.2013 05:31 0,8 C 87 % 1008,8 hPa 0,0 l/m 10,8 km/h (2 Bft) SO 135 -1,1 C -2,6 C
08.03.2013 05:36 0,8 C 87 % 1008,9 hPa 0,0 l/m 6,5 km/h (2 Bft) O-NO 67 -1,1 C -1,3 C
08.03.2013 05:41 0,8 C 87 % 1008,8 hPa 0,0 l/m 7,6 km/h (2 Bft) NO 45 -1,1 C -1,7 C
08.03.2013 05:46 0,8 C 87 % 1008,7 hPa 0,0 l/m 5,0 km/h (1 Bft) O-NO 67 -1,1 C -0,7 C
08.03.2013 05:51 0,8 C 87 % 1008,7 hPa 0,0 l/m 15,1 km/h (3 Bft) SO 135 -1,1 C -3,4 C
08.03.2013 05:56 0,8 C 87 % 1008,7 hPa 0,0 l/m 11,9 km/h (2 Bft) SO 135 -1,1 C -2,8 C
08.03.2013 06:01 0,8 C 87 % 1008,7 hPa 0,5 l/m 8,6 km/h (2 Bft) O-NO 67 -1,1 C -2,0 C
08.03.2013 06:06 0,8 C 87 % 1008,7 hPa 0,0 l/m 7,2 km/h (2 Bft) O-NO 67 -1,1 C -1,5 C
08.03.2013 06:11 0,8 C 87 % 1008,5 hPa 0,0 l/m 8,6 km/h (2 Bft) O-NO 67 -1,1 C -2,0 C
08.03.2013 06:16 0,8 C 87 % 1008,6 hPa 0,0 l/m 15,8 km/h (3 Bft) O-SO 112 -1,1 C -3,6 C
08.03.2013 06:21 0,8 C 87 % 1008,5 hPa 0,0 l/m 11,9 km/h (2 Bft) O 90 -1,1 C -2,8 C
08.03.2013 06:26 0,7 C 87 % 1008,6 hPa 0,0 l/m 12,6 km/h (3 Bft) NO 45 -1,2 C -3,1 C
08.03.2013 06:31 0,7 C 88 % 1008,5 hPa 0,0 l/m 5,4 km/h (1 Bft) O 90 -1,1 C -1,0 C
08.03.2013 06:36 0,7 C 88 % 1008,7 hPa 0,0 l/m 9,7 km/h (2 Bft) O-SO 112 -1,1 C -2,4 C
08.03.2013 06:41 0,7 C 88 % 1008,7 hPa 0,0 l/m 14,8 km/h (3 Bft) O 90 -1,1 C -3,5 C
08.03.2013 06:46 0,8 C 88 % 1008,8 hPa 0,0 l/m 15,5 km/h (3 Bft) O 90 -1,0 C -3,5 C
08.03.2013 06:51 0,7 C 87 % 1008,7 hPa 0,0 l/m 14,8 km/h (3 Bft) O-NO 67 -1,2 C -3,5 C
08.03.2013 06:56 0,8 C 87 % 1008,8 hPa 0,0 l/m 17,3 km/h (3 Bft) SO 135 -1,1 C -3,8 C
08.03.2013 07:01 0,8 C 87 % 1008,8 hPa 0,0 l/m 22,7 km/h (4 Bft) SO 135 -1,1 C -4,6 C
08.03.2013 07:06 0,8 C 87 % 1008,8 hPa 0,0 l/m 6,8 km/h (2 Bft) O 90 -1,1 C -1,4 C
08.03.2013 07:11 0,8 C 87 % 1008,8 hPa 0,0 l/m 6,1 km/h (2 Bft) O-SO 112 -1,1 C -1,1 C
08.03.2013 07:16 0,7 C 88 % 1008,7 hPa 0,0 l/m 9,7 km/h (2 Bft) O 90 -1,1 C -2,4 C
08.03.2013 07:21 0,7 C 88 % 1008,6 hPa 0,0 l/m 7,6 km/h (2 Bft) SO 135 -1,1 C -1,8 C
08.03.2013 07:26 0,7 C 88 % 1008,7 hPa 0,0 l/m 7,6 km/h (2 Bft) NO 45 -1,1 C -1,8 C
08.03.2013 07:31 0,6 C 88 % 1008,8 hPa 0,0 l/m 12,6 km/h (3 Bft) O-NO 67 -1,2 C -3,2 C
08.03.2013 07:36 0,6 C 89 % 1008,8 hPa 0,0 l/m 14,8 km/h (3 Bft) SO 135 -1,0 C -3,6 C
08.03.2013 07:41 0,6 C 89 % 1008,8 hPa 0,0 l/m 13,7 km/h (3 Bft) O-SO 112 -1,0 C -3,4 C
08.03.2013 07:46 0,6 C 89 % 1008,7 hPa 0,0 l/m 7,2 km/h (2 Bft) O-NO 67 -1,0 C -1,8 C
08.03.2013 07:51 0,5 C 89 % 1008,7 hPa 0,0 l/m 19,1 km/h (3 Bft) O-SO 112 -1,1 C -4,5 C
08.03.2013 07:56 0,5 C 89 % 1008,8 hPa 0,0 l/m 20,9 km/h (4 Bft) O-SO 112 -1,1 C -4,7 C
08.03.2013 08:01 0,6 C 89 % 1008,8 hPa 0,0 l/m 8,3 km/h (2 Bft) O-NO 67 -1,0 C -2,1 C
08.03.2013 08:06 0,6 C 89 % 1008,9 hPa 0,0 l/m 11,9 km/h (2 Bft) SO 135 -1,0 C -3,1 C
08.03.2013 08:11 0,6 C 89 % 1008,9 hPa 0,0 l/m 12,2 km/h (2 Bft) O 90 -1,0 C -3,1 C
08.03.2013 08:16 0,6 C 89 % 1009,1 hPa 0,0 l/m 9,7 km/h (2 Bft) O 90 -1,0 C -2,5 C
08.03.2013 08:21 0,6 C 89 % 1009,0 hPa 0,0 l/m 20,5 km/h (4 Bft) O-NO 67 -1,0 C -4,6 C
08.03.2013 08:26 0,6 C 88 % 1009,1 hPa 0,0 l/m 18,7 km/h (3 Bft) SO 135 -1,2 C -4,3 C
08.03.2013 08:31 0,6 C 88 % 1009,1 hPa 0,0 l/m 11,9 km/h (2 Bft) O-SO 112 -1,2 C -3,1 C
08.03.2013 08:36 0,5 C 88 % 1009,1 hPa 0,0 l/m 16,6 km/h (3 Bft) O-SO 112 -1,3 C -4,1 C
08.03.2013 08:41 0,5 C 88 % 1009,2 hPa 0,0 l/m 8,6 km/h (2 Bft) O-NO 67 -1,3 C -2,3 C
08.03.2013 08:46 0,5 C 88 % 1009,0 hPa 0,0 l/m 13,3 km/h (3 Bft) SO 135 -1,3 C -3,5 C
08.03.2013 08:51 0,6 C 88 % 1009,1 hPa 0,0 l/m 22,0 km/h (4 Bft) O-SO 112 -1,2 C -4,8 C
08.03.2013 08:56 0,6 C 88 % 1009,0 hPa 0,0 l/m 16,9 km/h (3 Bft) O-SO 112 -1,2 C -4,0 C
08.03.2013 09:01 0,6 C 87 % 1008,8 hPa 0,0 l/m 9,4 km/h (2 Bft) SO 135 -1,3 C -2,4 C
08.03.2013 09:06 0,6 C 87 % 1009,0 hPa 0,0 l/m 18,4 km/h (3 Bft) O-NO 67 -1,3 C -4,2 C
08.03.2013 09:11 0,6 C 86 % 1009,1 hPa 0,0 l/m 9,7 km/h (2 Bft) O 90 -1,5 C -2,5 C
08.03.2013 09:16 0,7 C 86 % 1009,0 hPa 0,0 l/m 7,6 km/h (2 Bft) NO 45 -1,4 C -1,8 C
08.03.2013 09:21 0,7 C 85 % 1009,0 hPa 0,0 l/m 15,8 km/h (3 Bft) O-NO 67 -1,5 C -3,7 C
08.03.2013 09:26 0,8 C 85 % 1009,2 hPa 0,0 l/m 17,3 km/h (3 Bft) O 90 -1,4 C -3,8 C
08.03.2013 09:31 0,8 C 85 % 1009,2 hPa 0,0 l/m 11,2 km/h (2 Bft) O-SO 112 -1,4 C -2,7 C
08.03.2013 09:36 0,9 C 85 % 1009,2 hPa 0,0 l/m 14,4 km/h (3 Bft) O 90 -1,3 C -3,2 C
08.03.2013 09:41 0,9 C 85 % 1009,1 hPa 0,0 l/m 22,3 km/h (4 Bft) O 90 -1,3 C -4,4 C
08.03.2013 09:46 0,9 C 84 % 1009,0 hPa 0,0 l/m 15,1 km/h (3 Bft) SO 135 -1,5 C -3,3 C
08.03.2013 09:51 1,0 C 84 % 1009,1 hPa 0,0 l/m 6,5 km/h (2 Bft) O-SO 112 -1,4 C -1,1 C
08.03.2013 09:56 1,0 C 84 % 1009,2 hPa 0,0 l/m 16,6 km/h (3 Bft) O-NO 67 -1,4 C -3,5 C
08.03.2013 10:01 1,0 C 83 % 1009,2 hPa 0,0 l/m 14,4 km/h (3 Bft) SO 135 -1,6 C -3,1 C
08.03.2013 10:06 1,1 C 83 % 1009,3 hPa 0,0 l/m 15,8 km/h (3 Bft) O-NO 67 -1,5 C -3,2 C
08.03.2013 10:11 1,1 C 83 % 1009,3 hPa 0,0 l/m 6,8 km/h (2 Bft) O-SO 112 -1,5 C -1,1 C
08.03.2013 10:16 1,1 C 83 % 1009,2 hPa 0,0 l/m 8,3 km/h (2 Bft) NO 45 -1,5 C -1,5 C
08.03.2013 10:21 1,1 C 83 % 1009,3 hPa 0,0 l/m 20,9 km/h (4 Bft) O 90 -1,5 C -4,0 C
08.03.2013 10:26 1,1 C 82 % 1009,3 hPa 0,0 l/m 17,6 km/h (3 Bft) SO 135 -1,6 C -3,5 C
08.03.2013 10:31 1,1 C 82 % 1009,2 hPa 0,0 l/m 14,8 km/h (3 Bft) O 90 -1,6 C -3,0 C
08.03.2013 10:36 1,2 C 83 % 1009,1 hPa 0,0 l/m 15,8 km/h (3 Bft) SO 135 -1,4 C -3,1 C
08.03.2013 10:41 1,3 C 83 % 1009,3 hPa 0,0 l/m 10,8 km/h (2 Bft) O-NO 67 -1,3 C -2,0 C
08.03.2013 10:46 1,3 C 83 % 1009,3 hPa 0,0 l/m 18,7 km/h (3 Bft) SO 135 -1,3 C -3,4 C
08.03.2013 10:51 1,3 C 83 % 1009,2 hPa 0,0 l/m 14,8 km/h (3 Bft) O 90 -1,3 C -2,8 C
08.03.2013 10:56 1,3 C 82 % 1009,2 hPa 0,0 l/m 7,6 km/h (2 Bft) S-SO 157 -1,4 C -1,1 C
08.03.2013 11:01 1,3 C 83 % 1009,1 hPa 0,0 l/m 13,3 km/h (3 Bft) SO 135 -1,3 C -2,5 C
08.03.2013 11:06 1,3 C 82 % 1009,4 hPa 0,0 l/m 20,5 km/h (4 Bft) O 90 -1,4 C -3,7 C
08.03.2013 11:11 1,3 C 82 % 1009,2 hPa 0,0 l/m 11,2 km/h (2 Bft) O 90 -1,4 C -2,0 C
08.03.2013 11:16 1,3 C 82 % 1009,1 hPa 0,0 l/m 18,4 km/h (3 Bft) O-NO 67 -1,4 C -3,4 C
08.03.2013 11:21 1,3 C 82 % 1009,1 hPa 0,0 l/m 11,2 km/h (2 Bft) O 90 -1,4 C -2,0 C
08.03.2013 11:26 1,4 C 82 % 1009,1 hPa 0,0 l/m 5,0 km/h (1 Bft) O 90 -1,3 C -0,0 C
08.03.2013 11:31 1,5 C 82 % 1009,3 hPa 0,0 l/m 11,9 km/h (2 Bft) SO 135 -1,2 C -2,0 C
08.03.2013 11:36 1,5 C 81 % 1009,4 hPa 0,0 l/m 11,9 km/h (2 Bft) O-SO 112 -1,4 C -2,0 C
08.03.2013 11:41 1,6 C 82 % 1009,4 hPa 0,0 l/m 19,4 km/h (3 Bft) O-SO 112 -1,1 C -3,1 C
08.03.2013 11:46 1,5 C 81 % 1009,5 hPa 0,0 l/m 9,4 km/h (2 Bft) O-NO 67 -1,4 C -1,4 C
08.03.2013 11:51 1,4 C 81 % 1009,3 hPa 0,0 l/m 17,3 km/h (3 Bft) O-SO 112 -1,5 C -3,1 C
08.03.2013 11:56 1,4 C 81 % 1009,2 hPa 0,0 l/m 20,2 km/h (4 Bft) SO 135 -1,5 C -3,5 C
08.03.2013 12:01 1,3 C 80 % 1009,3 hPa 0,0 l/m 20,5 km/h (4 Bft) O-SO 112 -1,8 C -3,7 C
08.03.2013 12:06 1,4 C 80 % 1009,2 hPa 0,0 l/m 33,5 km/h (5 Bft) O-SO 112 -1,7 C -5,0 C
08.03.2013 12:11 1,5 C 80 % 1009,2 hPa 0,0 l/m 14,4 km/h (3 Bft) O-SO 112 -1,6 C -2,5 C
08.03.2013 12:16 1,6 C 80 % 1009,2 hPa 0,0 l/m 14,4 km/h (3 Bft) O 90 -1,5 C -2,3 C
08.03.2013 12:21 1,8 C 80 % 1009,1 hPa 0,0 l/m 14,8 km/h (3 Bft) S-SO 157 -1,3 C -2,2 C
08.03.2013 12:26 1,8 C 80 % 1009,1 hPa 0,0 l/m 13,0 km/h (3 Bft) O 90 -1,3 C -1,8 C
08.03.2013 12:31 1,6 C 80 % 1009,2 hPa 0,0 l/m 13,7 km/h (3 Bft) SO 135 -1,5 C -2,2 C
08.03.2013 12:36 1,6 C 80 % 1009,2 hPa 0,0 l/m 22,0 km/h (4 Bft) O-SO 112 -1,5 C -3,5 C
08.03.2013 12:41 1,6 C 80 % 1009,2 hPa 0,0 l/m 23,0 km/h (4 Bft) O-SO 112 -1,5 C -3,6 C
08.03.2013 12:46 1,6 C 80 % 1009,2 hPa 0,0 l/m 15,5 km/h (3 Bft) O-SO 112 -1,5 C -2,5 C
08.03.2013 12:51 1,6 C 80 % 1009,1 hPa 0,0 l/m 17,3 km/h (3 Bft) O 90 -1,5 C -2,8 C
08.03.2013 12:56 1,6 C 80 % 1009,1 hPa 0,0 l/m 14,0 km/h (3 Bft) O-SO 112 -1,5 C -2,3 C
08.03.2013 13:01 1,6 C 79 % 1009,1 hPa 0,0 l/m 10,4 km/h (2 Bft) O-SO 112 -1,6 C -1,5 C
08.03.2013 13:06 1,6 C 79 % 1009,1 hPa 0,0 l/m 6,5 km/h (2 Bft) O-NO 67 -1,6 C -0,4 C
08.03.2013 13:11 1,5 C 80 % 1009,1 hPa 0,0 l/m 13,3 km/h (3 Bft) SO 135 -1,6 C -2,2 C
08.03.2013 13:16 1,6 C 80 % 1008,9 hPa 0,0 l/m 14,8 km/h (3 Bft) O-SO 112 -1,5 C -2,4 C
08.03.2013 13:21 1,6 C 80 % 1009,0 hPa 0,0 l/m 23,4 km/h (4 Bft) O-SO 112 -1,5 C -3,7 C
08.03.2013 13:26 1,6 C 80 % 1008,9 hPa 0,0 l/m 17,3 km/h (3 Bft) O-NO 67 -1,5 C -2,8 C
08.03.2013 13:31 1,6 C 79 % 1008,9 hPa 0,0 l/m 12,6 km/h (3 Bft) O-NO 67 -1,6 C -2,0 C
08.03.2013 13:36 1,6 C 79 % 1008,9 hPa 0,0 l/m 11,2 km/h (2 Bft) O-NO 67 -1,6 C -1,7 C
08.03.2013 13:41 1,6 C 79 % 1008,8 hPa 0,0 l/m 9,7 km/h (2 Bft) SO 135 -1,6 C -1,3 C
08.03.2013 13:46 1,5 C 79 % 1008,9 hPa 0,0 l/m 21,6 km/h (4 Bft) SO 135 -1,7 C -3,6 C
08.03.2013 13:51 1,4 C 79 % 1008,8 hPa 0,0 l/m 22,0 km/h (4 Bft) O 90 -1,8 C -3,7 C
08.03.2013 13:56 1,4 C 79 % 1008,9 hPa 0,0 l/m 14,8 km/h (3 Bft) SO 135 -1,8 C -2,7 C
08.03.2013 14:01 1,4 C 79 % 1008,9 hPa 0,0 l/m 19,4 km/h (3 Bft) O 90 -1,8 C -3,4 C
08.03.2013 14:06 1,5 C 79 % 1008,8 hPa 0,0 l/m 28,8 km/h (4 Bft) O 90 -1,7 C -4,4 C
08.03.2013 14:11 1,5 C 79 % 1008,8 hPa 0,0 l/m 25,2 km/h (4 Bft) O-SO 112 -1,7 C -4,0 C
08.03.2013 14:16 1,5 C 79 % 1008,8 hPa 0,0 l/m 25,2 km/h (4 Bft) O-NO 67 -1,7 C -4,0 C
08.03.2013 14:21 1,5 C 79 % 1008,7 hPa 0,0 l/m 7,6 km/h (2 Bft) O 90 -1,7 C -0,9 C
08.03.2013 14:26 1,4 C 79 % 1008,8 hPa 0,0 l/m 14,8 km/h (3 Bft) O 90 -1,8 C -2,7 C
08.03.2013 14:31 1,5 C 79 % 1008,9 hPa 0,0 l/m 5,8 km/h (2 Bft) SO 135 -1,7 C -0,2 C
08.03.2013 14:36 1,5 C 79 % 1008,8 hPa 0,0 l/m 25,6 km/h (4 Bft) SO 135 -1,7 C -4,1 C
08.03.2013 14:41 1,7 C 79 % 1008,8 hPa 0,0 l/m 20,9 km/h (4 Bft) SO 135 -1,5 C -3,2 C
08.03.2013 14:46 1,7 C 78 % 1008,9 hPa 0,0 l/m 23,8 km/h (4 Bft) O-SO 112 -1,7 C -3,6 C
08.03.2013 14:51 1,6 C 78 % 1008,8 hPa 0,0 l/m 9,4 km/h (2 Bft) O-NO 67 -1,8 C -1,3 C
08.03.2013 14:56 1,6 C 79 % 1008,8 hPa 0,0 l/m 9,7 km/h (2 Bft) S-SO 157 -1,6 C -1,3 C
08.03.2013 15:01 1,6 C 79 % 1008,9 hPa 0,0 l/m 20,2 km/h (4 Bft) O-NO 67 -1,6 C -3,3 C
08.03.2013 15:06 1,6 C 79 % 1008,9 hPa 0,0 l/m 7,9 km/h (2 Bft) O 90 -1,6 C -0,8 C
08.03.2013 15:11 1,5 C 79 % 1008,8 hPa 0,0 l/m 9,7 km/h (2 Bft) O-NO 67 -1,7 C -1,4 C
08.03.2013 15:16 1,4 C 79 % 1008,8 hPa 0,0 l/m 3,6 km/h (1 Bft) S 180 -1,8 C 1,4 C
08.03.2013 15:21 1,4 C 80 % 1008,8 hPa 0,0 l/m 8,3 km/h (2 Bft) O 90 -1,7 C -1,2 C
08.03.2013 15:26 1,4 C 80 % 1008,9 hPa 0,0 l/m 11,2 km/h (2 Bft) O-SO 112 -1,7 C -1,9 C
08.03.2013 15:31 1,4 C 80 % 1009,0 hPa 0,0 l/m 12,2 km/h (2 Bft) SO 135 -1,7 C -2,1 C
08.03.2013 15:36 1,4 C 80 % 1008,9 hPa 0,0 l/m 13,0 km/h (3 Bft) O-SO 112 -1,7 C -2,3 C
08.03.2013 15:41 1,4 C 80 % 1009,1 hPa 0,0 l/m 7,2 km/h (2 Bft) O-NO 67 -1,7 C -0,8 C
08.03.2013 15:46 1,4 C 80 % 1009,0 hPa 0,0 l/m 10,4 km/h (2 Bft) O-SO 112 -1,7 C -1,7 C
08.03.2013 15:51 1,3 C 80 % 1009,0 hPa 0,0 l/m 10,8 km/h (2 Bft) O 90 -1,8 C -2,0 C
08.03.2013 15:56 1,4 C 80 % 1009,0 hPa 0,0 l/m 9,0 km/h (2 Bft) O-SO 112 -1,7 C -1,4 C
08.03.2013 16:01 1,3 C 80 % 1009,0 hPa 0,0 l/m 6,1 km/h (2 Bft) O-SO 112 -1,8 C -0,6 C
08.03.2013 16:06 1,3 C 80 % 1009,1 hPa 0,0 l/m 9,0 km/h (2 Bft) SO 135 -1,8 C -1,5 C
08.03.2013 16:11 1,3 C 79 % 1009,1 hPa 0,0 l/m 10,1 km/h (2 Bft) NO 45 -1,9 C -1,8 C
08.03.2013 16:16 1,3 C 79 % 1009,1 hPa 0,0 l/m 14,8 km/h (3 Bft) SO 135 -1,9 C -2,8 C
08.03.2013 16:21 1,3 C 79 % 1009,2 hPa 0,0 l/m 10,8 km/h (2 Bft) SO 135 -1,9 C -2,0 C
08.03.2013 16:26 1,3 C 80 % 1009,1 hPa 0,0 l/m 9,4 km/h (2 Bft) O-SO 112 -1,8 C -1,6 C
08.03.2013 16:31 1,3 C 80 % 1009,2 hPa 0,0 l/m 8,3 km/h (2 Bft) O-SO 112 -1,8 C -1,3 C
08.03.2013 16:36 1,3 C 79 % 1009,1 hPa 0,0 l/m 15,5 km/h (3 Bft) SO 135 -1,9 C -2,9 C
08.03.2013 16:41 1,3 C 79 % 1009,0 hPa 0,0 l/m 20,5 km/h (4 Bft) SO 135 -1,9 C -3,7 C
08.03.2013 16:46 1,3 C 79 % 1009,4 hPa 0,0 l/m 21,2 km/h (4 Bft) S-SO 157 -1,9 C -3,8 C
08.03.2013 16:51 1,3 C 79 % 1009,2 hPa 0,0 l/m 13,7 km/h (3 Bft) SO 135 -1,9 C -2,6 C
08.03.2013 16:56 1,3 C 79 % 1009,2 hPa 0,0 l/m 11,2 km/h (2 Bft) O-NO 67 -1,9 C -2,0 C
08.03.2013 17:01 1,3 C 78 % 1009,1 hPa 0,0 l/m 23,4 km/h (4 Bft) O 90 -2,1 C -4,0 C
08.03.2013 17:06 1,3 C 78 % 1009,2 hPa 0,0 l/m 14,8 km/h (3 Bft) O-NO 67 -2,1 C -2,8 C
08.03.2013 17:11 1,3 C 78 % 1009,1 hPa 0,0 l/m 16,6 km/h (3 Bft) S-SO 157 -2,1 C -3,1 C
08.03.2013 17:16 1,3 C 77 % 1009,1 hPa 0,0 l/m 7,2 km/h (2 Bft) SO 135 -2,3 C -1,0 C
08.03.2013 17:21 1,3 C 77 % 1009,2 hPa 0,0 l/m 24,8 km/h (4 Bft) O 90 -2,3 C -4,2 C
08.03.2013 17:26 1,3 C 77 % 1009,2 hPa 0,0 l/m 15,1 km/h (3 Bft) O-SO 112 -2,3 C -2,8 C
08.03.2013 17:31 1,3 C 77 % 1009,3 hPa 0,0 l/m 9,0 km/h (2 Bft) O-SO 112 -2,3 C -1,5 C
08.03.2013 17:36 1,3 C 77 % 1009,1 hPa 0,0 l/m 13,0 km/h (3 Bft) O 90 -2,3 C -2,4 C
08.03.2013 17:41 1,3 C 77 % 1009,2 hPa 0,0 l/m 14,4 km/h (3 Bft) SO 135 -2,3 C -2,7 C
08.03.2013 17:46 1,3 C 76 % 1009,1 hPa 0,0 l/m 17,6 km/h (3 Bft) S-SO 157 -2,5 C -3,2 C
08.03.2013 17:51 1,3 C 76 % 1009,2 hPa 0,0 l/m 13,7 km/h (3 Bft) SO 135 -2,5 C -2,6 C
08.03.2013 17:56 1,3 C 76 % 1009,1 hPa 0,0 l/m 7,6 km/h (2 Bft) SO 135 -2,5 C -1,1 C
08.03.2013 18:01 1,3 C 76 % 1009,2 hPa 0,0 l/m 19,8 km/h (3 Bft) O-SO 112 -2,5 C -3,6 C
08.03.2013 18:06 1,3 C 76 % 1009,2 hPa 0,0 l/m 23,0 km/h (4 Bft) SO 135 -2,5 C -4,0 C
08.03.2013 18:11 1,3 C 75 % 1009,1 hPa 0,0 l/m 12,2 km/h (2 Bft) SO 135 -2,6 C -2,3 C
08.03.2013 18:16 1,3 C 75 % 1009,0 hPa 0,0 l/m 9,4 km/h (2 Bft) SO 135 -2,6 C -1,6 C
08.03.2013 18:21 1,3 C 76 % 1009,2 hPa 0,0 l/m 14,4 km/h (3 Bft) SO 135 -2,5 C -2,7 C
08.03.2013 18:26 1,3 C 75 % 1009,2 hPa 0,0 l/m 12,2 km/h (2 Bft) O-NO 67 -2,6 C -2,3 C
08.03.2013 18:31 1,3 C 76 % 1009,2 hPa 0,0 l/m 23,4 km/h (4 Bft) O 90 -2,5 C -4,0 C
08.03.2013 18:36 1,3 C 76 % 1009,4 hPa 0,0 l/m 13,0 km/h (3 Bft) O-SO 112 -2,5 C -2,4 C
08.03.2013 18:41 1,3 C 76 % 1009,5 hPa 0,0 l/m 15,5 km/h (3 Bft) O 90 -2,5 C -2,9 C
08.03.2013 18:46 1,3 C 76 % 1009,5 hPa 0,0 l/m 9,4 km/h (2 Bft) SO 135 -2,5 C -1,6 C
08.03.2013 18:51 1,3 C 76 % 1009,6 hPa 0,0 l/m 11,9 km/h (2 Bft) SO 135 -2,5 C -2,2 C
08.03.2013 18:56 1,3 C 76 % 1009,5 hPa 0,0 l/m 13,0 km/h (3 Bft) O-SO 112 -2,5 C -2,4 C
08.03.2013 19:01 1,3 C 76 % 1009,5 hPa 0,0 l/m 16,2 km/h (3 Bft) S-SO 157 -2,5 C -3,0 C
08.03.2013 19:06 1,3 C 76 % 1009,5 hPa 0,0 l/m 9,7 km/h (2 Bft) SO 135 -2,5 C -1,7 C
08.03.2013 19:11 1,3 C 76 % 1009,5 hPa 0,0 l/m 15,5 km/h (3 Bft) SO 135 -2,5 C -2,9 C
08.03.2013 19:16 1,3 C 76 % 1009,6 hPa 0,0 l/m 14,8 km/h (3 Bft) O-NO 67 -2,5 C -2,8 C
08.03.2013 19:21 1,3 C 76 % 1009,8 hPa 0,0 l/m 6,1 km/h (2 Bft) SO 135 -2,5 C -0,6 C
08.03.2013 19:26 1,3 C 76 % 1009,7 hPa 0,0 l/m 9,7 km/h (2 Bft) O 90 -2,5 C -1,7 C
08.03.2013 19:31 1,3 C 76 % 1009,5 hPa 0,0 l/m 10,1 km/h (2 Bft) SO 135 -2,5 C -1,8 C
08.03.2013 19:36 1,3 C 76 % 1009,5 hPa 0,0 l/m 5,4 km/h (1 Bft) O-SO 112 -2,5 C -0,3 C
08.03.2013 19:41 1,4 C 76 % 1009,5 hPa 0,0 l/m 14,4 km/h (3 Bft) O-SO 112 -2,4 C -2,6 C
08.03.2013 19:46 1,4 C 76 % 1009,5 hPa 0,0 l/m 6,1 km/h (2 Bft) SO 135 -2,4 C -0,5 C
08.03.2013 19:51 1,4 C 76 % 1009,6 hPa 0,0 l/m 5,4 km/h (1 Bft) S-SO 157 -2,4 C -0,2 C
08.03.2013 19:56 1,4 C 76 % 1009,5 hPa 0,0 l/m 8,3 km/h (2 Bft) O-SO 112 -2,4 C -1,2 C
08.03.2013 20:01 1,4 C 77 % 1009,5 hPa 0,0 l/m 10,8 km/h (2 Bft) SO 135 -2,2 C -1,8 C
08.03.2013 20:06 1,4 C 77 % 1009,5 hPa 0,0 l/m 10,8 km/h (2 Bft) O-NO 67 -2,2 C -1,8 C
08.03.2013 20:11 1,4 C 77 % 1009,5 hPa 0,0 l/m 10,8 km/h (2 Bft) O 90 -2,2 C -1,8 C
08.03.2013 20:16 1,4 C 77 % 1009,6 hPa 0,0 l/m 8,3 km/h (2 Bft) O-SO 112 -2,2 C -1,2 C
08.03.2013 20:21 1,4 C 77 % 1009,6 hPa 0,0 l/m 4,3 km/h (1 Bft) O-SO 112 -2,2 C 1,4 C
08.03.2013 20:26 1,4 C 77 % 1009,6 hPa 0,0 l/m 15,5 km/h (3 Bft) SO 135 -2,2 C -2,8 C
08.03.2013 20:31 1,4 C 77 % 1009,5 hPa 0,0 l/m 20,5 km/h (4 Bft) S-SO 157 -2,2 C -3,5 C
08.03.2013 20:36 1,4 C 76 % 1009,5 hPa 0,0 l/m 11,9 km/h (2 Bft) O-SO 112 -2,4 C -2,1 C
08.03.2013 20:41 1,4 C 76 % 1009,5 hPa 0,0 l/m 19,8 km/h (3 Bft) O-SO 112 -2,4 C -3,4 C
08.03.2013 20:46 1,4 C 76 % 1009,5 hPa 0,0 l/m 8,3 km/h (2 Bft) SO 135 -2,4 C -1,2 C
08.03.2013 20:51 1,3 C 76 % 1009,5 hPa 0,0 l/m 14,4 km/h (3 Bft) O 90 -2,5 C -2,7 C
08.03.2013 20:56 1,3 C 77 % 1009,5 hPa 0,0 l/m 11,9 km/h (2 Bft) O 90 -2,3 C -2,2 C
08.03.2013 21:01 1,3 C 76 % 1009,4 hPa 0,0 l/m 17,6 km/h (3 Bft) S-SO 157 -2,5 C -3,2 C
08.03.2013 21:06 1,3 C 76 % 1009,3 hPa 0,0 l/m 9,4 km/h (2 Bft) SO 135 -2,5 C -1,6 C
08.03.2013 21:11 1,3 C 77 % 1009,3 hPa 0,0 l/m 9,7 km/h (2 Bft) SO 135 -2,3 C -1,7 C
08.03.2013 21:16 1,3 C 77 % 1009,2 hPa 0,0 l/m 14,0 km/h (3 Bft) SO 135 -2,3 C -2,6 C
08.03.2013 21:21 1,3 C 77 % 1009,2 hPa 0,0 l/m 19,1 km/h (3 Bft) SO 135 -2,3 C -3,5 C
08.03.2013 21:26 1,3 C 77 % 1009,2 hPa 0,0 l/m 8,3 km/h (2 Bft) O-NO 67 -2,3 C -1,3 C
08.03.2013 21:31 1,3 C 77 % 1009,2 hPa 0,0 l/m 5,8 km/h (2 Bft) O 90 -2,3 C -0,5 C
08.03.2013 21:36 1,3 C 77 % 1009,2 hPa 0,0 l/m 16,6 km/h (3 Bft) SO 135 -2,3 C -3,1 C
08.03.2013 21:41 1,3 C 77 % 1009,2 hPa 0,0 l/m 7,6 km/h (2 Bft) O-SO 112 -2,3 C -1,1 C
08.03.2013 21:46 1,3 C 77 % 1009,2 hPa 0,0 l/m 6,1 km/h (2 Bft) O-SO 112 -2,3 C -0,6 C
08.03.2013 21:51 1,3 C 77 % 1009,2 hPa 0,0 l/m 14,8 km/h (3 Bft) SO 135 -2,3 C -2,8 C
08.03.2013 21:56 1,3 C 77 % 1009,1 hPa 0,0 l/m 16,2 km/h (3 Bft) O 90 -2,3 C -3,0 C
08.03.2013 22:01 1,3 C 77 % 1009,1 hPa 0,0 l/m 8,6 km/h (2 Bft) O 90 -2,3 C -1,4 C
08.03.2013 22:06 1,3 C 77 % 1009,1 hPa 0,0 l/m 7,2 km/h (2 Bft) O 90 -2,3 C -1,0 C
08.03.2013 22:11 1,3 C 77 % 1009,2 hPa 0,0 l/m 11,2 km/h (2 Bft) O-NO 67 -2,3 C -2,0 C
08.03.2013 22:16 1,3 C 77 % 1009,2 hPa 0,0 l/m 14,4 km/h (3 Bft) SO 135 -2,3 C -2,7 C
08.03.2013 22:21 1,3 C 77 % 1009,2 hPa 0,0 l/m 7,9 km/h (2 Bft) S-SO 157 -2,3 C -1,2 C
08.03.2013 22:26 1,3 C 77 % 1009,1 hPa 0,0 l/m 6,8 km/h (2 Bft) O-SO 112 -2,3 C -0,8 C
08.03.2013 22:31 1,3 C 77 % 1009,0 hPa 0,0 l/m 18,7 km/h (3 Bft) SO 135 -2,3 C -3,4 C
08.03.2013 22:36 1,3 C 77 % 1008,9 hPa 0,0 l/m 10,8 km/h (2 Bft) O 90 -2,3 C -2,0 C
08.03.2013 22:41 1,3 C 77 % 1008,8 hPa 0,0 l/m 7,9 km/h (2 Bft) O 90 -2,3 C -1,2 C
08.03.2013 22:46 1,3 C 77 % 1008,8 hPa 0,0 l/m 22,7 km/h (4 Bft) O-SO 112 -2,3 C -4,0 C
08.03.2013 22:51 1,3 C 77 % 1008,9 hPa 0,0 l/m 5,4 km/h (1 Bft) O 90 -2,3 C -0,3 C
08.03.2013 22:56 1,3 C 77 % 1009,0 hPa 0,0 l/m 10,4 km/h (2 Bft) O-SO 112 -2,3 C -1,9 C
08.03.2013 23:01 1,3 C 77 % 1009,0 hPa 0,0 l/m 19,8 km/h (3 Bft) SO 135 -2,3 C -3,6 C
08.03.2013 23:06 1,3 C 77 % 1009,1 hPa 0,0 l/m 14,4 km/h (3 Bft) O 90 -2,3 C -2,7 C
08.03.2013 23:11 1,3 C 77 % 1009,1 hPa 0,0 l/m 10,1 km/h (2 Bft) S-SO 157 -2,3 C -1,8 C
08.03.2013 23:16 1,3 C 77 % 1009,0 hPa 0,0 l/m 9,4 km/h (2 Bft) O-SO 112 -2,3 C -1,6 C
08.03.2013 23:21 1,3 C 77 % 1009,2 hPa 0,0 l/m 8,6 km/h (2 Bft) O-SO 112 -2,3 C -1,4 C
08.03.2013 23:26 1,3 C 77 % 1009,2 hPa 0,0 l/m 9,4 km/h (2 Bft) SO 135 -2,3 C -1,6 C
08.03.2013 23:31 1,3 C 77 % 1009,3 hPa 0,0 l/m 11,9 km/h (2 Bft) O 90 -2,3 C -2,2 C
08.03.2013 23:36 1,3 C 77 % 1009,3 hPa 0,0 l/m 8,6 km/h (2 Bft) S-SO 157 -2,3 C -1,4 C
08.03.2013 23:41 1,3 C 77 % 1009,2 hPa 0,0 l/m 9,7 km/h (2 Bft) O 90 -2,3 C -1,7 C
08.03.2013 23:46 1,3 C 77 % 1009,4 hPa 0,0 l/m 6,8 km/h (2 Bft) SO 135 -2,3 C -0,8 C
08.03.2013 23:51 1,3 C 77 % 1009,5 hPa 0,0 l/m 10,8 km/h (2 Bft) O 90 -2,3 C -2,0 C
08.03.2013 23:56 1,3 C 78 % 1009,5 hPa 0,0 l/m 6,5 km/h (2 Bft) O-SO 112 -2,1 C -0,7 C
_ Min-Zeit 07:51 01:41 00:06 - 15:16 - - 18:11 12:06
Minimum _ 0,5 C 69 % 1007,8 hPa - 3,6 km/h (1 Bft) - - -2,6 C -5,0 C
_ Max-Zeit 00:01 07:36 19:21 06:01 12:06 - - 00:01 00:11
Maximum _ 5,4 C 89 % 1009,8 hPa 0,5 l/m 33,5 km/h
O-SO (5 Bft)
- - 1,0 C 5,3 C
Durchschnitt _ 1,6 C 80 % 1008,9 hPa #0,5 l/m 13,5 km/h (3 Bft) SO - -1,5 C -2,0 C
(c) by David Heller